Time;durP1;ratioP1;P1;durP2;ratioP2;P2;SDS_P1;SDS_P2;PMS_P1;PMS_P2;Temp;Humidity;BMP_temperature;BMP_pressure;BME280_temperature;BME280_humidity;BME280_pressure;Samples;Min_cycle;Max_cycle;Signal;HPM_P1;HPM_P2
2022/08/07 00:00:21;;;;;;;7.60;5.68;;;16.60;99.90;;;;;;4821846;29;20051;-51
2022/08/07 00:02:46;;;;;;;8.48;5.25;;;16.60;99.90;;;;;;4821646;29;20034;-51
2022/08/07 00:05:12;;;;;;;12.05;5.80;;;16.60;99.90;;;;;;4821648;29;20455;-50
2022/08/07 00:07:39;;;;;;;6.35;5.35;;;16.60;99.90;;;;;;4821727;29;20026;-51
2022/08/07 00:10:05;;;;;;;9.75;5.13;;;16.60;99.90;;;;;;4821524;29;20034;-51
2022/08/07 00:12:31;;;;;;;9.93;5.70;;;16.60;99.90;;;;;;4821575;29;20049;-50
2022/08/07 00:14:57;;;;;;;10.65;5.32;;;16.60;99.90;;;;;;4821422;29;20042;-51
2022/08/07 00:17:23;;;;;;;12.30;5.75;;;16.60;99.90;;;;;;4820374;29;20053;-51
2022/08/07 00:19:49;;;;;;;6.50;5.03;;;16.50;99.90;;;;;;4821526;29;20042;-54
2022/08/07 00:22:15;;;;;;;15.23;5.68;;;16.60;99.90;;;;;;4821415;29;20049;-51
2022/08/07 00:24:41;;;;;;;6.75;5.78;;;16.60;99.90;;;;;;4821353;29;20491;-50
2022/08/07 00:27:06;;;;;;;7.03;5.90;;;16.50;99.90;;;;;;4821082;29;20035;-52
2022/08/07 00:29:32;;;;;;;6.95;6.00;;;16.50;99.90;;;;;;4821802;29;20427;-51
2022/08/07 00:31:58;;;;;;;6.53;5.57;;;16.50;99.90;;;;;;4821406;29;20464;-50
2022/08/07 00:34:28;;;;;;;8.55;5.80;;;16.50;99.90;;;;;;4821363;29;20034;-53
2022/08/07 00:36:55;;;;;;;10.60;6.53;;;16.50;99.90;;;;;;4821356;29;20038;-52
2022/08/07 00:39:20;;;;;;;5.85;5.05;;;16.50;99.90;;;;;;4821431;29;20439;-53
2022/08/07 00:41:53;;;;;;;7.43;5.07;;;16.50;99.90;;;;;;4821092;29;20182;-51
2022/08/07 00:44:19;;;;;;;7.28;6.07;;;16.50;99.90;;;;;;4821483;29;20022;-53
2022/08/07 00:46:45;;;;;;;6.68;5.93;;;16.50;99.90;;;;;;4821360;29;20546;-50
2022/08/07 00:49:11;;;;;;;12.10;6.55;;;16.40;99.90;;;;;;4821029;29;20038;-50
2022/08/07 00:51:37;;;;;;;8.27;7.35;;;16.40;99.90;;;;;;4821383;29;20026;-51
2022/08/07 00:54:04;;;;;;;13.80;7.63;;;16.40;99.90;;;;;;4821238;29;20031;-52
2022/08/07 00:56:30;;;;;;;11.90;7.22;;;16.40;99.90;;;;;;4821050;29;20054;-51
2022/08/07 00:58:57;;;;;;;12.85;8.20;;;16.30;99.90;;;;;;4821652;29;20030;-50
2022/08/07 01:01:23;;;;;;;13.57;8.07;;;16.30;99.90;;;;;;4824437;29;20038;-50
2022/08/07 01:03:50;;;;;;;10.60;8.15;;;16.40;99.90;;;;;;4824257;29;20191;-54
2022/08/07 01:06:17;;;;;;;14.13;8.05;;;16.40;99.90;;;;;;4824504;29;20109;-52
2022/08/07 01:08:43;;;;;;;13.50;9.15;;;16.30;99.90;;;;;;4824288;29;20034;-51
2022/08/07 01:11:10;;;;;;;22.13;10.85;;;16.40;99.90;;;;;;4824078;29;20053;-50
2022/08/07 01:13:36;;;;;;;11.75;8.93;;;16.30;99.90;;;;;;4824272;29;20498;-50
2022/08/07 01:16:04;;;;;;;14.57;9.95;;;16.30;99.90;;;;;;4824102;29;20037;-49
2022/08/07 01:18:30;;;;;;;16.17;9.35;;;16.30;99.90;;;;;;4824404;29;20042;-54
2022/08/07 01:21:09;;;;;;;14.02;9.32;;;16.30;99.90;;;;;;4822779;29;20034;-51
2022/08/07 01:23:35;;;;;;;15.32;10.05;;;16.30;99.90;;;;;;4824075;29;20034;-50
2022/08/07 01:26:02;;;;;;;13.73;9.05;;;16.30;99.90;;;;;;4823802;29;20042;-51
2022/08/07 01:28:28;;;;;;;13.38;8.90;;;16.30;99.90;;;;;;4823899;29;20022;-50
2022/08/07 01:30:55;;;;;;;9.75;8.77;;;16.30;99.90;;;;;;4823837;29;20030;-52
2022/08/07 01:33:22;;;;;;;11.25;9.98;;;16.30;99.90;;;;;;4824035;29;20034;-50
2022/08/07 01:35:48;;;;;;;12.35;10.20;;;16.30;99.90;;;;;;4822574;29;20121;-52
2022/08/07 01:38:16;;;;;;;11.15;9.05;;;16.20;99.90;;;;;;4823867;29;20170;-51
2022/08/07 01:40:44;;;;;;;11.93;9.80;;;16.20;99.90;;;;;;4822571;29;20506;-51
2022/08/07 01:43:10;;;;;;;15.00;9.63;;;16.20;99.90;;;;;;4805490;29;20043;-50
2022/08/07 01:45:37;;;;;;;12.02;9.13;;;16.20;99.90;;;;;;4805669;29;20026;-52
2022/08/07 01:48:03;;;;;;;16.00;9.45;;;16.20;99.90;;;;;;4805572;29;20027;-51
2022/08/07 01:50:30;;;;;;;16.25;10.48;;;16.20;99.90;;;;;;4805668;29;20238;-50
2022/08/07 01:52:57;;;;;;;13.15;10.07;;;16.20;99.90;;;;;;4805538;29;20030;-52
2022/08/07 01:55:34;;;;;;;14.77;9.55;;;16.20;99.90;;;;;;4816716;29;20061;-51
2022/08/07 01:58:01;;;;;;;15.18;10.85;;;16.20;99.90;;;;;;4823315;29;20026;-50
2022/08/07 02:00:29;;;;;;;15.02;10.40;;;16.20;99.90;;;;;;4823589;29;20018;-51
2022/08/07 02:03:06;;;;;;;15.77;10.98;;;16.20;99.90;;;;;;4823313;29;20027;-50
2022/08/07 02:05:37;;;;;;;10.35;9.25;;;16.10;99.90;;;;;;4823538;29;20034;-52
2022/08/07 02:08:07;;;;;;;10.10;9.20;;;16.10;99.90;;;;;;4823265;29;20550;-51
2022/08/07 02:10:36;;;;;;;13.35;9.32;;;16.10;99.90;;;;;;4822526;29;20058;-52
2022/08/07 02:13:03;;;;;;;12.38;9.75;;;16.10;99.90;;;;;;4823126;29;20056;-51
2022/08/07 02:15:30;;;;;;;11.45;9.60;;;16.10;99.90;;;;;;4823432;29;20034;-50
2022/08/07 02:17:58;;;;;;;11.07;9.23;;;16.10;99.90;;;;;;4823227;29;20036;-51
2022/08/07 02:20:24;;;;;;;10.98;8.95;;;16.10;99.90;;;;;;4823099;29;20058;-52
2022/08/07 02:22:56;;;;;;;13.13;9.55;;;16.00;99.90;;;;;;4823061;29;20752;-50
2022/08/07 02:25:24;;;;;;;10.48;9.57;;;16.00;99.90;;;;;;4823133;29;20030;-51
2022/08/07 02:27:51;;;;;;;12.40;9.23;;;16.00;99.90;;;;;;4823290;29;20026;-50
2022/08/07 02:30:17;;;;;;;16.08;9.60;;;16.00;99.90;;;;;;4823170;29;20356;-52
2022/08/07 02:32:44;;;;;;;9.73;8.77;;;16.00;99.90;;;;;;4823002;29;20095;-51
2022/08/07 02:35:10;;;;;;;14.32;8.65;;;16.00;99.90;;;;;;4822742;29;20086;-50
2022/08/07 02:37:39;;;;;;;11.20;8.27;;;16.00;99.90;;;;;;4822963;29;20030;-50
2022/08/07 02:40:07;;;;;;;12.43;8.52;;;16.00;99.90;;;;;;4822876;29;20083;-51
2022/08/07 02:42:34;;;;;;;14.48;9.07;;;16.00;99.90;;;;;;4822816;29;20042;-50
2022/08/07 02:45:03;;;;;;;11.15;9.57;;;15.90;99.90;;;;;;4822847;29;20054;-49
2022/08/07 02:47:29;;;;;;;15.68;9.55;;;15.90;99.90;;;;;;4822813;29;20031;-50
2022/08/07 02:49:55;;;;;;;14.30;9.20;;;16.00;99.90;;;;;;4822522;29;20030;-51
2022/08/07 02:52:46;;;;;;;12.95;9.35;;;15.90;99.90;;;;;;4822977;29;20042;-50
2022/08/07 02:55:19;;;;;;;12.52;9.25;;;16.00;99.90;;;;;;4822651;29;20532;-51
2022/08/07 02:57:46;;;;;;;10.43;9.15;;;15.90;99.90;;;;;;4822712;29;20038;-52
2022/08/07 03:00:12;;;;;;;14.23;9.20;;;15.90;99.90;;;;;;4822590;29;20086;-50
2022/08/07 03:02:42;;;;;;;17.48;10.40;;;15.90;99.90;;;;;;4822384;29;20347;-51
2022/08/07 03:05:09;;;;;;;13.70;9.50;;;15.90;99.90;;;;;;4822304;29;20026;-53
2022/08/07 03:07:36;;;;;;;10.95;9.00;;;15.80;99.90;;;;;;4822521;29;20036;-51
2022/08/07 03:10:03;;;;;;;13.20;9.93;;;15.80;99.90;;;;;;4822442;29;20034;-50
2022/08/07 03:12:30;;;;;;;13.80;9.65;;;15.80;99.90;;;;;;4822397;29;20411;-51
2022/08/07 03:14:57;;;;;;;17.33;9.98;;;15.70;99.90;;;;;;4822063;29;20269;-52
2022/08/07 03:17:23;;;;;;;10.75;9.40;;;15.80;99.90;;;;;;4822365;29;20061;-52
2022/08/07 03:19:53;;;;;;;14.45;10.02;;;15.70;99.90;;;;;;4822052;29;20353;-53
2022/08/07 03:22:20;;;;;;;11.65;10.43;;;15.70;99.90;;;;;;4822312;29;20511;-51
2022/08/07 03:24:47;;;;;;;13.95;11.88;;;15.60;99.90;;;;;;4822360;29;20030;-51
2022/08/07 03:27:14;;;;;;;21.40;12.75;;;15.70;99.90;;;;;;4822185;29;20110;-50
2022/08/07 03:29:44;;;;;;;22.63;11.30;;;15.60;99.90;;;;;;4822304;29;20059;-50
2022/08/07 03:32:12;;;;;;;16.88;10.77;;;15.60;99.90;;;;;;4822223;29;20030;-51
2022/08/07 03:34:39;;;;;;;17.73;12.27;;;15.70;99.90;;;;;;4822038;29;20475;-50
2022/08/07 03:37:08;;;;;;;14.60;11.48;;;15.60;99.90;;;;;;4820908;29;20448;-52
2022/08/07 03:39:35;;;;;;;17.35;13.23;;;15.70;99.90;;;;;;4821616;29;20034;-51
2022/08/07 03:42:03;;;;;;;15.70;13.13;;;15.70;99.90;;;;;;4821795;29;20121;-50
2022/08/07 03:44:30;;;;;;;20.30;14.50;;;15.70;99.90;;;;;;4822101;29;20500;-52
2022/08/07 03:46:56;;;;;;;15.30;13.68;;;15.70;99.90;;;;;;4821834;29;20023;-51
2022/08/07 03:49:22;;;;;;;16.60;13.40;;;15.80;99.90;;;;;;4821989;29;20026;-52
2022/08/07 03:51:50;;;;;;;17.70;14.57;;;15.80;99.90;;;;;;4822024;29;20075;-51
2022/08/07 03:54:16;;;;;;;15.93;13.48;;;15.80;99.90;;;;;;4821819;29;20038;-50
2022/08/07 03:56:44;;;;;;;15.88;14.07;;;15.80;99.90;;;;;;4821874;29;20378;-50
2022/08/07 03:59:12;;;;;;;16.55;14.85;;;15.90;99.90;;;;;;4821773;29;20065;-49
2022/08/07 04:01:43;;;;;;;18.67;15.73;;;15.90;99.90;;;;;;4821825;29;20034;-50
2022/08/07 04:04:10;;;;;;;20.40;16.85;;;15.90;99.90;;;;;;4821687;29;20125;-50
2022/08/07 04:06:39;;;;;;;18.55;15.02;;;15.90;99.90;;;;;;4821935;29;20019;-50
2022/08/07 04:09:06;;;;;;;20.10;15.45;;;15.90;99.90;;;;;;4821268;29;20059;-49
2022/08/07 04:11:33;;;;;;;23.13;16.67;;;15.90;99.90;;;;;;4821796;29;20027;-51
2022/08/07 04:14:01;;;;;;;21.88;17.02;;;15.90;99.90;;;;;;4821644;29;20042;-51
2022/08/07 04:16:27;;;;;;;24.90;16.00;;;16.00;99.90;;;;;;4820368;29;20117;-50
2022/08/07 04:18:53;;;;;;;16.95;14.77;;;16.00;99.90;;;;;;4821584;29;20375;-52
2022/08/07 04:21:19;;;;;;;17.45;15.65;;;16.00;99.90;;;;;;4821614;29;20406;-50
2022/08/07 04:23:46;;;;;;;22.67;17.88;;;16.10;99.90;;;;;;4821164;29;20069;-53
2022/08/07 04:26:13;;;;;;;18.55;16.60;;;16.10;99.90;;;;;;4821460;29;20049;-51
2022/08/07 04:28:42;;;;;;;23.35;15.18;;;16.00;99.90;;;;;;4821619;29;20023;-51
2022/08/07 04:31:08;;;;;;;21.95;14.77;;;16.10;99.90;;;;;;4821321;29;20029;-50
2022/08/07 04:33:36;;;;;;;16.98;15.18;;;16.10;99.90;;;;;;4821594;29;20053;-51
2022/08/07 04:36:03;;;;;;;19.17;15.00;;;16.10;99.90;;;;;;4824983;29;20037;-53
2022/08/07 04:38:29;;;;;;;18.35;14.88;;;16.10;99.90;;;;;;4824551;29;20129;-50
2022/08/07 04:40:55;;;;;;;16.10;14.50;;;16.10;99.90;;;;;;4825067;29;20530;-51
2022/08/07 04:43:29;;;;;;;15.82;14.30;;;16.10;99.90;;;;;;4824879;29;20087;-50
2022/08/07 04:46:21;;;;;;;16.75;13.52;;;16.10;99.90;;;;;;4823373;29;20057;-51
2022/08/07 04:49:08;;;;;;;18.10;12.43;;;16.10;99.90;;;;;;4824741;29;20032;-55
2022/08/07 04:51:40;;;;;;;21.33;10.45;;;16.20;99.90;;;;;;4824732;29;20042;-52
2022/08/07 04:54:27;;;;;;;10.77;9.70;;;16.20;99.90;;;;;;4824622;29;20107;-50
2022/08/07 04:57:08;;;;;;;12.48;9.73;;;16.20;99.90;;;;;;4824511;29;20023;-51
2022/08/07 04:59:45;;;;;;;14.40;8.88;;;16.20;99.90;;;;;;4824480;29;20527;-50
2022/08/07 05:02:24;;;;;;;15.43;9.30;;;16.30;99.90;;;;;;4823148;29;20038;-51
2022/08/07 05:04:53;;;;;;;12.10;8.57;;;16.30;99.90;;;;;;4823018;29;20070;-52
2022/08/07 05:07:29;;;;;;;8.55;7.65;;;16.40;99.90;;;;;;4824541;29;20045;-54
2022/08/07 05:09:57;;;;;;;8.30;7.50;;;16.40;99.90;;;;;;4823989;29;20034;-49
2022/08/07 05:12:30;;;;;;;10.40;6.88;;;16.40;99.90;;;;;;4824257;29;20461;-52
2022/08/07 05:15:14;;;;;;;11.60;7.50;;;16.50;99.90;;;;;;4823850;29;20049;-50
2022/08/07 05:17:44;;;;;;;10.48;6.93;;;16.50;99.90;;;;;;4824499;29;20033;-49
2022/08/07 05:20:12;;;;;;;8.10;7.30;;;16.50;99.90;;;;;;4824048;29;20026;-50
2022/08/07 05:22:40;;;;;;;7.60;6.90;;;16.50;99.90;;;;;;4824087;29;20399;-51
2022/08/07 05:25:07;;;;;;;7.55;6.57;;;16.60;99.90;;;;;;4824659;29;20448;-52
2022/08/07 05:27:34;;;;;;;9.57;7.57;;;16.60;99.90;;;;;;4825174;29;20094;-50
2022/08/07 05:30:01;;;;;;;7.35;6.47;;;16.60;99.90;;;;;;4824967;29;20023;-54
2022/08/07 05:32:27;;;;;;;11.82;7.15;;;16.60;99.90;;;;;;4823875;29;20034;-53
2022/08/07 05:34:54;;;;;;;14.25;7.03;;;16.70;99.90;;;;;;4825001;29;20444;-51
2022/08/07 05:37:21;;;;;;;10.32;6.07;;;16.70;99.90;;;;;;4824957;29;20042;-51
2022/08/07 05:39:48;;;;;;;10.90;5.95;;;16.70;99.90;;;;;;4824324;29;20130;-50
2022/08/07 05:42:14;;;;;;;8.18;6.03;;;16.80;99.90;;;;;;4823601;29;20035;-49
2022/08/07 05:44:40;;;;;;;6.28;5.65;;;16.90;99.90;;;;;;4822031;29;20034;-50
2022/08/07 05:47:07;;;;;;;7.88;6.15;;;17.00;99.90;;;;;;4822479;29;20106;-49
2022/08/07 05:49:34;;;;;;;8.23;6.55;;;17.10;99.90;;;;;;4823272;29;20410;-49
2022/08/07 05:52:00;;;;;;;8.07;6.45;;;17.10;99.90;;;;;;4823590;29;20042;-50
2022/08/07 05:54:25;;;;;;;6.97;6.30;;;17.10;99.90;;;;;;4823984;29;20030;-49
2022/08/07 05:56:54;;;;;;;9.18;5.85;;;17.20;99.90;;;;;;4823312;29;20086;-51
2022/08/07 05:59:22;;;;;;;7.03;5.85;;;17.30;99.90;;;;;;4823374;29;20057;-50
2022/08/07 06:01:49;;;;;;;11.05;6.90;;;17.40;99.90;;;;;;4823422;29;20035;-49
2022/08/07 06:04:18;;;;;;;11.65;7.28;;;17.40;99.90;;;;;;4823483;29;20042;-50
2022/08/07 06:06:44;;;;;;;11.00;6.05;;;17.40;99.90;;;;;;4823371;29;20032;-50
2022/08/07 06:09:10;;;;;;;7.72;6.18;;;17.40;99.90;;;;;;4823255;29;20479;-51
2022/08/07 06:11:37;;;;;;;9.65;6.78;;;17.50;99.90;;;;;;4822770;29;20031;-51
2022/08/07 06:14:03;;;;;;;7.53;6.15;;;17.40;99.90;;;;;;4822762;29;20042;-51
2022/08/07 06:16:32;;;;;;;6.65;5.30;;;17.50;99.90;;;;;;4823353;29;20018;-52
2022/08/07 06:19:00;;;;;;;12.43;6.38;;;17.60;99.90;;;;;;4823051;29;20030;-51
2022/08/07 06:21:26;;;;;;;6.90;6.05;;;17.60;99.90;;;;;;4823380;29;20065;-50
2022/08/07 06:23:52;;;;;;;6.60;5.65;;;17.70;99.90;;;;;;4821781;29;20042;-50
2022/08/07 06:26:18;;;;;;;9.40;5.78;;;17.70;99.90;;;;;;4823182;29;20114;-51
2022/08/07 06:29:03;;;;;;;7.47;5.03;;;17.70;99.90;;;;;;4823261;29;20119;-51
2022/08/07 06:31:29;;;;;;;6.03;5.00;;;17.70;99.90;;;;;;4822891;29;20038;-49
2022/08/07 06:33:54;;;;;;;5.47;5.00;;;17.80;99.90;;;;;;4823202;29;20380;-49
2022/08/07 06:36:20;;;;;;;5.85;5.30;;;17.90;99.90;;;;;;4822867;29;20026;-50
2022/08/07 06:38:46;;;;;;;9.20;4.60;;;18.00;99.90;;;;;;4822912;29;20117;-51
2022/08/07 06:41:18;;;;;;;8.95;4.72;;;18.10;99.90;;;;;;4822714;29;20049;-52
2022/08/07 06:43:45;;;;;;;4.90;4.50;;;18.10;99.90;;;;;;4822892;29;20046;-49
2022/08/07 06:46:11;;;;;;;5.15;4.32;;;18.20;99.90;;;;;;4822472;29;20079;-50
2022/08/07 06:48:37;;;;;;;5.97;4.18;;;18.30;99.90;;;;;;4822670;29;20030;-51
2022/08/07 06:51:07;;;;;;;7.70;4.93;;;18.30;99.90;;;;;;4822742;29;20029;-49
2022/08/07 06:53:35;;;;;;;8.18;4.45;;;18.30;99.90;;;;;;4822878;29;20023;-50
2022/08/07 06:56:04;;;;;;;4.38;3.63;;;18.40;99.90;;;;;;4822576;29;20070;-49
2022/08/07 06:58:33;;;;;;;8.00;4.50;;;18.50;99.90;;;;;;4822321;29;20074;-50
2022/08/07 07:01:05;;;;;;;9.57;5.13;;;18.50;99.90;;;;;;4822649;29;20391;-52
2022/08/07 07:03:32;;;;;;;5.40;3.65;;;18.60;99.90;;;;;;4822790;29;20028;-51
2022/08/07 07:05:57;;;;;;;7.78;4.40;;;18.60;99.90;;;;;;4822392;29;20383;-51
2022/08/07 07:08:28;;;;;;;4.90;4.40;;;18.70;99.90;;;;;;4822411;29;20079;-49
2022/08/07 07:10:54;;;;;;;6.50;4.30;;;18.70;99.90;;;;;;4822450;29;20026;-52
2022/08/07 07:13:37;;;;;;;4.75;4.28;;;18.70;99.90;;;;;;4821101;29;20129;-51
2022/08/07 07:16:15;;;;;;;6.90;4.80;;;18.50;99.90;;;;;;4822373;29;20026;-51
2022/08/07 07:18:48;;;;;;;4.97;3.63;;;18.40;99.90;;;;;;4822567;29;20408;-50
2022/08/07 07:21:27;;;;;;;7.55;4.35;;;18.40;99.90;;;;;;4822383;29;20087;-49
2022/08/07 07:23:54;;;;;;;5.68;4.15;;;18.50;99.90;;;;;;4820792;29;20092;-50
2022/08/07 07:26:22;;;;;;;5.55;4.30;;;18.50;99.90;;;;;;4822369;29;20133;-49
2022/08/07 07:29:02;;;;;;;7.55;4.63;;;18.40;99.90;;;;;;4822234;29;20042;-50
2022/08/07 07:31:39;;;;;;;10.88;4.80;;;18.30;99.90;;;;;;4821100;29;20045;-49
2022/08/07 07:34:07;;;;;;;9.63;5.07;;;18.50;99.90;;;;;;4821805;29;20495;-50
2022/08/07 07:36:36;;;;;;;10.73;4.45;;;18.40;99.90;;;;;;4822287;29;20439;-50
2022/08/07 07:39:03;;;;;;;11.90;4.93;;;18.40;99.90;;;;;;4821984;29;20027;-49
2022/08/07 07:41:32;;;;;;;11.20;5.00;;;18.30;99.90;;;;;;4822184;29;20034;-50
2022/08/07 07:44:00;;;;;;;4.40;4.00;;;18.60;99.90;;;;;;4821908;29;20530;-51
2022/08/07 07:46:33;;;;;;;5.53;3.95;;;18.50;99.90;;;;;;4822067;29;20137;-50
2022/08/07 07:49:06;;;;;;;4.95;4.45;;;18.70;99.90;;;;;;4821755;29;20065;-50
2022/08/07 07:51:34;;;;;;;8.20;4.38;;;18.70;99.90;;;;;;4822073;29;20029;-50
2022/08/07 07:54:02;;;;;;;6.13;4.03;;;18.70;99.90;;;;;;4821749;29;20287;-49
2022/08/07 07:56:30;;;;;;;6.65;4.88;;;18.60;99.90;;;;;;4821925;29;20109;-50
2022/08/07 07:59:01;;;;;;;4.30;3.90;;;18.70;99.90;;;;;;4821692;29;20031;-51
2022/08/07 08:01:28;;;;;;;5.07;4.50;;;18.70;99.90;;;;;;4820556;29;20031;-50
2022/08/07 08:03:56;;;;;;;5.15;4.00;;;18.90;99.90;;;;;;4820981;29;20095;-51
2022/08/07 08:06:23;;;;;;;8.32;4.22;;;18.80;99.90;;;;;;4821801;29;20109;-49
2022/08/07 08:08:51;;;;;;;7.40;3.83;;;18.90;99.90;;;;;;4820866;29;20079;-52
2022/08/07 08:11:17;;;;;;;7.03;4.93;;;18.90;99.90;;;;;;4821756;29;20049;-51
2022/08/07 08:13:46;;;;;;;10.55;3.95;;;18.90;99.90;;;;;;4821429;29;20455;-51
2022/08/07 08:16:17;;;;;;;6.75;4.25;;;18.90;99.90;;;;;;4821562;29;20402;-50
2022/08/07 08:18:44;;;;;;;6.93;4.10;;;18.80;99.90;;;;;;4821760;29;20046;-49
2022/08/07 08:29:39;;;;;;;6.88;4.57;;;19.40;99.90;;;;;;4821544;29;20402;-49
2022/08/07 08:32:08;;;;;;;9.15;4.25;;;19.40;99.90;;;;;;4821068;29;20400;-50
2022/08/07 08:34:37;;;;;;;6.57;4.85;;;19.40;99.90;;;;;;4821360;29;20074;-52
2022/08/07 08:37:05;;;;;;;4.78;4.00;;;19.30;99.90;;;;;;4821151;29;20030;-51
2022/08/07 08:39:32;;;;;;;6.13;4.80;;;19.50;99.90;;;;;;4821811;29;20525;-51
2022/08/07 08:42:06;;;;;;;6.70;4.97;;;19.30;99.90;;;;;;4820991;29;20027;-52
2022/08/07 08:44:51;;;;;;;11.10;4.40;;;19.40;99.90;;;;;;4820425;29;20352;-52
2022/08/07 08:47:39;;;;;;;7.15;4.50;;;19.60;99.90;;;;;;4821002;29;20026;-51
2022/08/07 08:50:20;;;;;;;7.32;4.25;;;19.70;99.90;;;;;;4820944;29;20487;-49
2022/08/07 08:52:52;;;;;;;8.00;4.43;;;19.90;99.90;;;;;;4821443;29;20114;-52
2022/08/07 08:55:32;;;;;;;6.78;3.85;;;20.10;99.90;;;;;;4821248;29;20038;-51
2022/08/07 08:58:09;;;;;;;6.38;4.30;;;20.30;99.90;;;;;;4821157;29;20511;-50
2022/08/07 09:00:54;;;;;;;7.32;3.85;;;20.40;99.90;;;;;;4821164;29;20037;-51
2022/08/07 09:03:50;;;;;;;11.38;4.35;;;20.60;99.90;;;;;;4820796;29;20030;-52
2022/08/07 09:06:31;;;;;;;6.53;3.63;;;20.70;99.90;;;;;;4820211;29;20619;-51
2022/08/07 09:09:15;;;;;;;6.28;4.00;;;20.50;99.90;;;;;;4820933;29;20019;-50
2022/08/07 09:11:57;;;;;;;8.13;3.50;;;20.80;99.90;;;;;;4821063;29;20058;-51
2022/08/07 09:14:35;;;;;;;6.85;4.07;;;21.00;99.90;;;;;;4819016;29;20070;-49
2022/08/07 09:17:32;;;;;;;7.28;3.80;;;21.00;99.80;;;;;;4818617;29;20394;-51
2022/08/07 09:20:30;;;;;;;6.55;4.18;;;21.10;99.40;;;;;;4820722;29;20027;-49
2022/08/07 09:23:20;;;;;;;4.88;4.13;;;21.00;99.90;;;;;;4822455;29;20047;-51
2022/08/07 09:26:03;;;;;;;9.70;3.72;;;21.10;99.80;;;;;;4823060;29;20391;-53
2022/08/07 09:28:37;;;;;;;5.30;4.28;;;21.40;99.50;;;;;;4823120;29;20125;-50
2022/08/07 09:31:31;;;;;;;6.97;3.88;;;21.50;98.90;;;;;;4821636;29;20061;-50
2022/08/07 09:34:25;;;;;;;7.85;4.85;;;21.30;99.10;;;;;;4821530;29;20490;-49
2022/08/07 09:37:26;;;;;;;11.27;3.88;;;21.50;98.90;;;;;;4822747;29;20106;-51
2022/08/07 09:40:11;;;;;;;6.65;3.90;;;21.50;99.10;;;;;;4811228;29;20038;-49
2022/08/07 09:42:52;;;;;;;6.28;5.00;;;21.60;99.40;;;;;;4814120;29;20109;-51
2022/08/07 09:45:28;;;;;;;13.82;4.15;;;21.80;98.80;;;;;;4814727;29;20095;-50
2022/08/07 09:48:20;;;;;;;17.00;4.43;;;21.70;99.20;;;;;;4821587;29;20026;-49
2022/08/07 09:51:30;;;;;;;8.45;4.10;;;21.80;98.50;;;;;;4822674;29;20022;-51
2022/08/07 09:53:59;;;;;;;4.70;3.90;;;21.60;98.50;;;;;;4820085;29;20038;-54
2022/08/07 09:56:35;;;;;;;7.60;4.18;;;21.70;98.50;;;;;;4804662;29;20041;-53
2022/08/07 09:59:38;;;;;;;7.00;4.18;;;21.40;98.50;;;;;;4794463;29;20050;-52
2022/08/07 10:02:42;;;;;;;5.60;3.92;;;21.30;97.80;;;;;;4793515;29;20449;-53
2022/08/07 10:05:16;;;;;;;10.52;4.25;;;21.50;97.70;;;;;;4793779;29;20027;-51
2022/08/07 10:07:58;;;;;;;5.00;3.75;;;21.50;97.10;;;;;;4794673;29;20031;-50
2022/08/07 10:10:35;;;;;;;5.68;3.97;;;21.80;98.60;;;;;;4811308;29;20030;-51
2022/08/07 10:13:06;;;;;;;5.05;3.55;;;21.90;96.80;;;;;;4772996;29;1152069;-49
2022/08/07 10:16:00;;;;;;;6.43;3.80;;;22.30;96.80;;;;;;4811598;29;20085;-53
2022/08/07 10:19:05;;;;;;;6.13;3.53;;;22.50;97.00;;;;;;4800929;29;20501;-49
2022/08/07 10:21:50;;;;;;;6.78;3.85;;;22.80;95.90;;;;;;4795136;29;20046;-49
2022/08/07 10:25:00;;;;;;;7.90;4.07;;;23.10;95.80;;;;;;4811917;29;20060;-50
2022/08/07 10:27:51;;;;;;;8.15;3.60;;;22.90;95.90;;;;;;4809790;29;20091;-49
2022/08/07 10:30:41;;;;;;;7.88;3.80;;;23.20;95.20;;;;;;4809146;29;20826;-49
2022/08/07 10:33:18;;;;;;;5.28;3.40;;;23.40;95.30;;;;;;4805170;29;20413;-50
2022/08/07 10:36:17;;;;;;;3.60;2.97;;;23.50;97.10;;;;;;4823044;29;20031;-50
2022/08/07 10:39:11;;;;;;;4.00;3.60;;;23.80;95.60;;;;;;4821818;29;20113;-50
2022/08/07 10:41:49;;;;;;;5.43;3.40;;;24.50;94.90;;;;;;4821918;29;20413;-49
2022/08/07 10:44:23;;;;;;;5.70;3.42;;;25.00;94.10;;;;;;4822925;29;20034;-51
2022/08/07 10:47:28;;;;;;;6.93;3.08;;;24.80;93.50;;;;;;4822923;29;20027;-49
2022/08/07 10:50:06;;;;;;;4.22;3.30;;;24.50;94.10;;;;;;4820191;29;20479;-50
2022/08/07 10:52:57;;;;;;;7.50;2.95;;;24.60;91.70;;;;;;4821336;29;20030;-51
2022/08/07 10:55:34;;;;;;;9.25;2.70;;;24.10;93.00;;;;;;4822821;29;20029;-51
2022/08/07 10:58:21;;;;;;;7.82;2.83;;;24.40;92.10;;;;;;4822685;29;20027;-51
2022/08/07 11:01:18;;;;;;;8.30;3.80;;;24.50;90.50;;;;;;4821386;29;20122;-51
2022/08/07 11:04:21;;;;;;;3.67;2.42;;;24.00;90.30;;;;;;4821264;29;20050;-51
2022/08/07 11:07:21;;;;;;;5.63;2.78;;;24.20;90.60;;;;;;4822711;29;20038;-50
2022/08/07 11:09:56;;;;;;;6.55;2.30;;;23.80;90.10;;;;;;4822586;29;20040;-50
2022/08/07 11:12:37;;;;;;;5.95;2.83;;;24.40;91.60;;;;;;4822090;29;20023;-49
2022/08/07 11:15:10;;;;;;;5.63;2.80;;;24.50;90.80;;;;;;4822161;29;20047;-52
2022/08/07 11:17:57;;;;;;;4.90;2.60;;;24.50;90.70;;;;;;4822308;29;20071;-51
2022/08/07 11:20:26;;;;;;;2.25;1.83;;;24.80;88.90;;;;;;4822095;29;20446;-50
2022/08/07 11:23:15;;;;;;;4.90;2.38;;;24.80;90.20;;;;;;4822363;29;20058;-50
2022/08/07 11:25:53;;;;;;;3.72;2.00;;;24.80;87.20;;;;;;4822384;29;20294;-49
2022/08/07 11:28:33;;;;;;;5.00;2.78;;;25.20;87.50;;;;;;4822406;29;20023;-51
2022/08/07 11:31:02;;;;;;;6.97;2.65;;;25.70;87.10;;;;;;4822470;29;20027;-52
2022/08/07 11:33:50;;;;;;;2.58;2.00;;;25.40;83.90;;;;;;4822079;29;20061;-49
2022/08/07 11:36:20;;;;;;;7.28;3.47;;;25.10;85.80;;;;;;4822210;29;20038;-50
2022/08/07 11:39:12;;;;;;;2.50;2.30;;;25.00;85.40;;;;;;4822139;29;20031;-50
2022/08/07 11:42:03;;;;;;;9.68;2.50;;;25.20;86.90;;;;;;4822287;29;20086;-50
2022/08/07 11:44:54;;;;;;;16.40;2.53;;;25.50;84.40;;;;;;4822063;29;20069;-54
2022/08/07 11:47:22;;;;;;;2.50;2.00;;;25.80;83.40;;;;;;4821683;29;20038;-53
2022/08/07 11:49:55;;;;;;;6.38;2.30;;;26.30;81.70;;;;;;4822020;29;20034;-51
2022/08/07 11:52:29;;;;;;;4.82;2.00;;;26.40;80.40;;;;;;4821978;29;20030;-49
2022/08/07 11:55:10;;;;;;;4.75;1.92;;;26.50;78.90;;;;;;4821888;29;20031;-52
2022/08/07 11:57:52;;;;;;;5.95;2.33;;;26.70;76.00;;;;;;4821953;29;20058;-50
2022/08/07 12:01:08;;;;;;;4.15;1.92;;;27.40;77.60;;;;;;4821880;29;20596;-50
2022/08/07 12:03:52;;;;;;;3.40;1.73;;;27.70;76.00;;;;;;4821323;29;20069;-51
2022/08/07 12:06:24;;;;;;;3.10;1.60;;;28.80;71.00;;;;;;4821766;29;20098;-52
2022/08/07 12:08:57;;;;;;;5.53;2.22;;;29.10;72.30;;;;;;4821695;29;20064;-51
2022/08/07 12:12:06;;;;;;;4.63;1.52;;;29.30;69.20;;;;;;4820473;29;20030;-52
2022/08/07 12:14:46;;;;;;;2.72;2.00;;;28.70;67.20;;;;;;4818725;29;20076;-53
2022/08/07 12:17:15;;;;;;;1.83;1.50;;;27.40;68.40;;;;;;4821378;29;20034;-50
2022/08/07 12:19:51;;;;;;;4.00;1.95;;;26.40;69.60;;;;;;4821866;29;20034;-51
2022/08/07 12:22:34;;;;;;;3.58;1.90;;;25.50;73.80;;;;;;4821495;29;20030;-50
2022/08/07 12:28:19;;;;;;;2.67;2.03;;;25.70;71.30;;;;;;4821617;29;20103;-50
2022/08/07 12:30:51;;;;;;;3.85;1.95;;;25.50;72.60;;;;;;4821590;29;20168;-51
2022/08/07 12:33:21;;;;;;;3.83;2.05;;;25.30;73.60;;;;;;4821313;29;20059;-50
2022/08/07 12:35:50;;;;;;;5.07;1.85;;;25.30;73.70;;;;;;4820240;29;20510;-49
2022/08/07 12:38:17;;;;;;;3.78;2.10;;;25.70;74.20;;;;;;4821252;29;20123;-51
2022/08/07 12:40:45;;;;;;;3.30;1.75;;;26.10;73.10;;;;;;4821488;29;20026;-51
2022/08/07 12:43:12;;;;;;;2.90;2.00;;;26.20;72.90;;;;;;4819999;29;20034;-51
2022/08/07 12:46:11;;;;;;;4.22;1.70;;;27.20;73.30;;;;;;4819414;29;20498;-50
2022/08/07 12:49:16;;;;;;;4.78;1.30;;;28.50;69.10;;;;;;4812712;29;20035;-51
2022/08/07 12:51:49;;;;;;;1.60;1.25;;;28.90;67.10;;;;;;4811253;29;20087;-52
2022/08/07 12:54:56;;;;;;;5.38;1.45;;;29.20;68.80;;;;;;4803039;29;20054;-51
2022/08/07 12:57:29;;;;;;;6.00;1.38;;;30.10;63.10;;;;;;4827876;29;20038;-50
2022/08/07 12:59:57;;;;;;;3.38;1.77;;;30.30;62.90;;;;;;4806644;29;20018;-51
2022/08/07 13:02:32;;;;;;;4.25;1.40;;;30.50;62.80;;;;;;4807015;29;20039;-51
2022/08/07 13:05:38;;;;;;;3.03;1.40;;;30.80;62.10;;;;;;4807146;29;20113;-54
2022/08/07 13:08:54;;;;;;;2.90;1.80;;;30.60;61.20;;;;;;4822583;29;20038;-52
2022/08/07 13:11:25;;;;;;;7.32;1.48;;;30.30;61.00;;;;;;4832080;29;20542;-52
2022/08/07 13:14:37;;;;;;;3.72;1.42;;;31.20;62.60;;;;;;4823077;29;20082;-52
2022/08/07 13:17:16;;;;;;;5.85;1.40;;;30.90;60.20;;;;;;4787490;29;20046;-52
2022/08/07 13:19:51;;;;;;;8.57;1.45;;;32.20;59.80;;;;;;4820672;29;20030;-51
2022/08/07 13:22:30;;;;;;;2.17;1.35;;;32.40;60.40;;;;;;4823520;29;20068;-51
2022/08/07 13:25:01;;;;;;;7.25;1.10;;;32.30;57.80;;;;;;4823014;29;20026;-53